createdAt,value
2022-09-17T00:01:31.040Z,13.83
2022-09-17T00:04:04.645Z,13.88
2022-09-17T00:06:35.209Z,13.93
2022-09-17T00:09:05.009Z,13.97
2022-09-17T00:11:35.384Z,14.00
2022-09-17T00:14:05.053Z,14.04
2022-09-17T00:16:44.601Z,14.06
2022-09-17T00:19:19.840Z,14.07
2022-09-17T00:21:47.402Z,14.06
2022-09-17T00:24:17.313Z,14.12
2022-09-17T00:26:44.317Z,14.12
2022-09-17T00:29:11.426Z,14.17
2022-09-17T00:31:39.168Z,14.20
2022-09-17T00:34:07.167Z,14.20
2022-09-17T00:36:39.523Z,14.21
2022-09-17T00:39:09.181Z,14.22
2022-09-17T00:41:37.930Z,14.22
2022-09-17T00:44:49.580Z,14.24
2022-09-17T00:47:29.995Z,14.21
2022-09-17T00:50:07.952Z,14.22
2022-09-17T00:52:46.544Z,14.24
2022-09-17T00:55:39.248Z,14.27
2022-09-17T00:58:10.868Z,14.29
2022-09-17T01:00:37.940Z,14.30
2022-09-17T01:03:05.168Z,14.36
2022-09-17T01:06:21.006Z,14.37
2022-09-17T01:09:31.388Z,14.35
2022-09-17T01:12:39.280Z,14.31
2022-09-17T01:15:36.947Z,14.30
2022-09-17T01:18:37.352Z,14.29
2022-09-17T01:22:00.010Z,14.30
2022-09-17T01:24:49.878Z,14.28
2022-09-17T01:28:09.178Z,14.29
2022-09-17T01:31:04.508Z,14.23
2022-09-17T01:34:14.348Z,14.27
2022-09-17T01:36:54.798Z,14.24
2022-09-17T01:39:54.782Z,14.22
2022-09-17T01:42:37.798Z,14.23
2022-09-17T01:45:19.516Z,14.22
2022-09-17T01:48:07.530Z,14.22
2022-09-17T01:50:42.990Z,14.22
2022-09-17T01:53:12.951Z,14.23
2022-09-17T01:55:45.797Z,14.22
2022-09-17T01:58:31.645Z,14.24
2022-09-17T02:01:10.772Z,14.23
2022-09-17T02:03:46.342Z,14.23
2022-09-17T02:06:24.675Z,14.24
2022-09-17T02:08:56.963Z,14.24
2022-09-17T02:11:24.681Z,14.28
2022-09-17T02:14:03.188Z,14.30
2022-09-17T02:16:35.904Z,14.34
2022-09-17T02:19:10.835Z,14.36
2022-09-17T02:22:05.097Z,14.39
2022-09-17T02:24:57.693Z,14.42
2022-09-17T02:28:04.713Z,14.43
2022-09-17T02:30:32.160Z,14.45
2022-09-17T02:33:02.187Z,14.47
2022-09-17T02:35:32.157Z,14.51
2022-09-17T02:38:00.904Z,14.54
2022-09-17T02:40:35.320Z,14.59
2022-09-17T02:43:38.794Z,14.63
2022-09-17T02:46:36.245Z,14.61
2022-09-17T02:49:41.221Z,14.60
2022-09-17T02:52:16.698Z,14.59
2022-09-17T02:55:02.343Z,14.60
2022-09-17T02:58:04.167Z,14.63
2022-09-17T03:00:32.102Z,14.62
2022-09-17T03:03:10.718Z,14.65
2022-09-17T03:05:42.115Z,14.67
2022-09-17T03:08:14.170Z,14.66
2022-09-17T03:10:41.353Z,14.70
2022-09-17T03:13:08.131Z,14.68
2022-09-17T03:15:34.900Z,14.71
2022-09-17T03:18:02.117Z,14.74
2022-09-17T03:20:29.009Z,14.73
2022-09-17T03:22:55.783Z,14.75
2022-09-17T03:25:22.664Z,14.77
2022-09-17T03:27:49.534Z,14.80
2022-09-17T03:30:16.365Z,14.83
2022-09-17T03:32:43.078Z,14.83
2022-09-17T03:35:10.038Z,14.86
2022-09-17T03:37:36.873Z,14.87
2022-09-17T03:40:04.935Z,14.91
2022-09-17T03:42:31.686Z,14.90
2022-09-17T03:44:58.639Z,14.92
2022-09-17T03:47:25.360Z,14.92
2022-09-17T03:49:52.296Z,14.92
2022-09-17T03:52:19.141Z,14.93
2022-09-17T03:54:45.857Z,14.93
2022-09-17T03:57:12.595Z,14.91
2022-09-17T03:59:39.811Z,14.87
2022-09-17T04:02:07.070Z,14.91
2022-09-17T04:04:34.147Z,14.90
2022-09-17T04:07:00.930Z,14.89
2022-09-17T04:09:27.925Z,14.90
2022-09-17T04:11:55.057Z,14.85
2022-09-17T04:14:21.887Z,14.85
2022-09-17T04:16:48.594Z,14.87
2022-09-17T04:19:15.613Z,14.88
2022-09-17T04:21:42.473Z,14.87
2022-09-17T04:24:09.521Z,14.90
2022-09-17T04:26:36.362Z,14.90
2022-09-17T04:29:03.285Z,14.93
2022-09-17T04:31:30.102Z,14.92
2022-09-17T04:33:56.910Z,14.93
2022-09-17T04:36:26.908Z,14.94
2022-09-17T04:38:56.886Z,14.92
2022-09-17T04:41:23.894Z,14.93
2022-09-17T04:43:51.125Z,14.90
2022-09-17T04:46:18.183Z,14.88
2022-09-17T04:48:45.090Z,14.87
2022-09-17T04:51:12.080Z,14.85
2022-09-17T04:53:38.841Z,14.86
2022-09-17T04:56:05.946Z,14.87
2022-09-17T04:58:33.013Z,14.87
2022-09-17T05:00:59.968Z,14.87
2022-09-17T05:03:26.968Z,14.92
2022-09-17T05:05:53.679Z,14.94
2022-09-17T05:08:22.891Z,14.95
2022-09-17T05:10:51.488Z,14.93
2022-09-17T05:13:18.903Z,14.93
2022-09-17T05:15:45.710Z,14.91
2022-09-17T05:18:12.493Z,14.92
2022-09-17T05:20:39.405Z,14.92
2022-09-17T05:23:06.204Z,14.92
2022-09-17T05:25:32.967Z,14.96
2022-09-17T05:28:01.252Z,14.97
2022-09-17T05:30:28.053Z,14.98
2022-09-17T05:33:04.518Z,14.99
2022-09-17T05:35:32.833Z,15.00
2022-09-17T05:38:03.307Z,15.00
2022-09-17T05:40:32.742Z,15.01
2022-09-17T05:43:05.852Z,15.01
2022-09-17T05:45:37.498Z,15.06
2022-09-17T05:48:09.673Z,15.07
2022-09-17T05:50:36.407Z,15.07
2022-09-17T05:53:11.776Z,15.14
2022-09-17T05:55:39.093Z,15.15
2022-09-17T05:58:14.398Z,15.17
2022-09-17T06:00:42.638Z,15.21
2022-09-17T06:03:15.515Z,15.27
2022-09-17T06:05:42.789Z,15.31
2022-09-17T06:08:10.497Z,15.35
2022-09-17T06:10:39.153Z,15.43
2022-09-17T06:13:05.997Z,15.45
2022-09-17T06:15:32.773Z,15.47
2022-09-17T06:17:59.502Z,15.52
2022-09-17T06:20:26.250Z,15.56
2022-09-17T06:22:57.885Z,15.60
2022-09-17T06:25:26.458Z,15.63
2022-09-17T06:27:53.234Z,15.68
2022-09-17T06:30:20.133Z,15.75
2022-09-17T06:32:47.218Z,15.79
2022-09-17T06:35:14.360Z,15.83
2022-09-17T06:37:41.218Z,15.86
2022-09-17T06:40:09.738Z,15.88
2022-09-17T06:42:36.573Z,15.88
2022-09-17T06:45:08.534Z,15.88
2022-09-17T06:47:37.045Z,15.90
2022-09-17T06:50:06.114Z,15.92
2022-09-17T06:52:32.994Z,15.95
2022-09-17T06:54:59.742Z,15.99
2022-09-17T06:57:26.529Z,16.11
2022-09-17T06:59:53.513Z,16.32
2022-09-17T07:02:20.470Z,16.64
2022-09-17T07:04:47.303Z,17.01
2022-09-17T07:07:14.388Z,17.34
2022-09-17T07:09:41.142Z,17.61
2022-09-17T07:12:09.064Z,17.86
2022-09-17T07:14:36.284Z,17.94
2022-09-17T07:17:03.376Z,17.98
2022-09-17T07:19:30.155Z,18.01
2022-09-17T07:21:56.915Z,18.12
2022-09-17T07:24:23.899Z,18.43
2022-09-17T07:26:51.910Z,18.81
2022-09-17T07:29:18.774Z,19.19
2022-09-17T07:31:45.599Z,19.44
2022-09-17T07:34:12.545Z,19.68
2022-09-17T07:36:39.506Z,19.88
2022-09-17T07:39:06.425Z,20.32
2022-09-17T07:41:34.381Z,20.93
2022-09-17T07:44:02.573Z,21.33
2022-09-17T07:46:30.126Z,21.52
2022-09-17T07:48:56.983Z,21.53
2022-09-17T07:51:30.005Z,21.43
2022-09-17T07:53:59.509Z,21.28
2022-09-17T07:56:27.882Z,21.11
2022-09-17T07:58:55.760Z,20.97
2022-09-17T08:01:24.870Z,20.83
2022-09-17T08:03:54.770Z,20.74
2022-09-17T08:06:28.379Z,20.59
2022-09-17T08:08:57.862Z,20.48
2022-09-17T08:11:51.822Z,20.35
2022-09-17T08:14:15.785Z,20.16
2022-09-17T08:16:42.936Z,20.01
2022-09-17T08:19:12.540Z,19.86
2022-09-17T08:21:39.793Z,19.76
2022-09-17T08:24:06.975Z,19.89
2022-09-17T08:26:33.934Z,20.54
2022-09-17T08:29:00.854Z,21.49
2022-09-17T08:31:30.415Z,22.33
2022-09-17T08:33:57.866Z,23.29
2022-09-17T08:36:26.326Z,24.26
2022-09-17T08:38:55.308Z,25.18
2022-09-17T08:41:42.633Z,26.08
2022-09-17T08:44:50.656Z,27.16
2022-09-17T08:47:36.290Z,28.03
2022-09-17T08:50:08.084Z,28.73
2022-09-17T08:53:36.954Z,29.59
2022-09-17T08:56:19.515Z,30.48
2022-09-17T08:58:52.612Z,31.15
2022-09-17T09:01:43.506Z,31.72
2022-09-17T09:04:29.221Z,32.26
2022-09-17T09:07:10.569Z,32.72
2022-09-17T09:09:47.034Z,33.19
2022-09-17T09:12:28.086Z,33.73
2022-09-17T09:15:06.264Z,34.03
2022-09-17T09:17:46.179Z,33.85
2022-09-17T09:20:56.422Z,33.28
2022-09-17T09:24:14.656Z,32.29
2022-09-17T09:27:14.314Z,31.25
2022-09-17T09:30:02.363Z,30.29
2022-09-17T09:32:37.731Z,29.48
2022-09-17T09:35:39.843Z,28.58
2022-09-17T09:38:09.327Z,28.02
2022-09-17T09:41:03.089Z,27.45
2022-09-17T09:44:04.779Z,27.07
2022-09-17T09:47:14.026Z,26.85
2022-09-17T09:49:47.527Z,26.91
2022-09-17T09:52:42.884Z,27.32
2022-09-17T09:55:35.116Z,28.04
2022-09-17T09:58:36.714Z,28.97
2022-09-17T10:01:15.942Z,29.86
2022-09-17T10:03:46.408Z,30.47
2022-09-17T10:06:19.735Z,31.05
2022-09-17T10:08:55.641Z,31.53
2022-09-17T10:11:25.109Z,31.83
2022-09-17T10:13:52.045Z,32.09
2022-09-17T10:16:26.304Z,32.39
2022-09-17T10:19:05.112Z,32.71
2022-09-17T10:21:41.941Z,32.99
2022-09-17T10:24:32.080Z,33.31
2022-09-17T10:27:13.226Z,33.61
2022-09-17T10:29:47.215Z,33.88
2022-09-17T10:32:22.902Z,34.05
2022-09-17T10:35:15.574Z,34.17
2022-09-17T10:37:52.060Z,34.33
2022-09-17T10:40:19.135Z,34.39
2022-09-17T10:43:21.640Z,34.34
2022-09-17T10:46:00.307Z,34.11
2022-09-17T10:48:38.481Z,33.87
2022-09-17T10:51:08.211Z,33.61
2022-09-17T10:54:00.780Z,33.26
2022-09-17T10:56:39.869Z,33.15
2022-09-17T10:59:43.230Z,33.09
2022-09-17T11:02:50.194Z,33.04
2022-09-17T11:06:00.048Z,33.11
2022-09-17T11:09:09.754Z,33.14
2022-09-17T11:11:54.744Z,33.04
2022-09-17T11:15:19.675Z,32.58
2022-09-17T11:18:55.080Z,32.05
2022-09-17T11:21:49.030Z,31.66
2022-09-17T11:24:45.696Z,31.28
2022-09-17T11:27:46.413Z,31.09
2022-09-17T11:30:25.681Z,30.88
2022-09-17T11:33:25.055Z,30.59
2022-09-17T11:36:12.911Z,30.49
2022-09-17T11:38:49.240Z,30.31
2022-09-17T11:41:34.383Z,29.94
2022-09-17T11:44:25.832Z,29.48
2022-09-17T11:47:11.060Z,28.86
2022-09-17T11:50:28.304Z,28.18
2022-09-17T11:53:29.604Z,27.40
2022-09-17T11:56:10.407Z,26.72
2022-09-17T11:59:05.205Z,25.76
2022-09-17T12:02:00.528Z,24.85
2022-09-17T12:04:37.690Z,24.08
2022-09-17T12:07:54.631Z,23.23
2022-09-17T12:10:52.995Z,22.39
2022-09-17T12:13:48.625Z,21.82
2022-09-17T12:16:39.512Z,21.24
2022-09-17T12:19:26.562Z,20.81
2022-09-17T12:22:19.383Z,20.43
2022-09-17T12:24:46.544Z,20.15
2022-09-17T12:27:37.555Z,19.95
2022-09-17T12:30:09.754Z,19.80
2022-09-17T12:32:59.285Z,19.69
2022-09-17T12:36:12.216Z,19.59
2022-09-17T12:39:06.880Z,19.50
2022-09-17T12:41:58.419Z,19.40
2022-09-17T12:45:04.807Z,19.28
2022-09-17T12:48:07.973Z,19.12
2022-09-17T12:51:26.230Z,18.90
2022-09-17T12:54:32.061Z,18.73
2022-09-17T12:57:12.753Z,18.54
2022-09-17T12:59:53.850Z,18.42
2022-09-17T13:02:20.710Z,18.32
2022-09-17T13:05:35.866Z,18.15
2022-09-17T13:08:30.452Z,18.00
2022-09-17T13:10:59.869Z,17.91
2022-09-17T13:13:57.129Z,17.82
2022-09-17T13:16:32.430Z,17.81
2022-09-17T13:19:39.152Z,17.79
2022-09-17T13:22:26.109Z,17.74
2022-09-17T13:25:21.830Z,17.74
2022-09-17T13:27:50.935Z,17.73
2022-09-17T13:30:20.849Z,17.76
2022-09-17T13:32:51.111Z,17.81
2022-09-17T13:35:17.767Z,17.83
2022-09-17T13:37:56.443Z,17.85
2022-09-17T13:40:31.028Z,17.89
2022-09-17T13:43:23.920Z,17.97
2022-09-17T13:45:59.961Z,18.05
2022-09-17T13:48:38.082Z,18.13
2022-09-17T13:51:32.544Z,18.23
2022-09-17T13:54:06.923Z,18.33
2022-09-17T13:56:46.208Z,18.46
2022-09-17T13:59:17.762Z,18.60
2022-09-17T14:01:59.512Z,18.77
2022-09-17T14:04:41.231Z,18.91
2022-09-17T14:07:24.198Z,19.05
2022-09-17T14:10:25.837Z,19.12
2022-09-17T14:12:59.259Z,19.18
2022-09-17T14:15:41.462Z,19.24
2022-09-17T14:18:26.858Z,19.28
2022-09-17T14:21:12.509Z,19.35
2022-09-17T14:23:47.642Z,19.39
2022-09-17T14:26:37.107Z,19.41
2022-09-17T14:29:34.548Z,19.42
2022-09-17T14:32:01.642Z,19.43
2022-09-17T14:34:31.625Z,19.42
2022-09-17T14:36:59.780Z,19.45
2022-09-17T14:39:39.693Z,19.44
2022-09-17T14:42:18.916Z,19.39
2022-09-17T14:45:02.054Z,19.33
2022-09-17T14:47:28.868Z,19.28
2022-09-17T14:50:10.028Z,19.25
2022-09-17T14:52:38.684Z,19.23
2022-09-17T14:55:30.443Z,19.23
2022-09-17T14:58:04.788Z,19.24
2022-09-17T15:00:38.822Z,19.26
2022-09-17T15:03:06.229Z,19.30
2022-09-17T15:05:40.058Z,19.32
2022-09-17T15:08:11.190Z,19.32
2022-09-17T15:10:56.608Z,19.32
2022-09-17T15:13:29.778Z,19.31
2022-09-17T15:16:12.666Z,19.37
2022-09-17T15:18:50.605Z,19.42
2022-09-17T15:21:33.231Z,19.49
2022-09-17T15:24:22.862Z,19.52
2022-09-17T15:26:56.397Z,19.56
2022-09-17T15:29:30.380Z,19.61
2022-09-17T15:31:57.489Z,19.64
2022-09-17T15:34:24.257Z,19.64
2022-09-17T15:37:25.162Z,19.64
2022-09-17T15:39:55.516Z,19.61
2022-09-17T15:42:31.212Z,19.65
2022-09-17T15:45:19.910Z,19.70
2022-09-17T15:47:57.930Z,19.79
2022-09-17T15:50:26.099Z,19.86
2022-09-17T15:53:08.673Z,19.95
2022-09-17T15:55:41.466Z,20.03
2022-09-17T15:58:27.026Z,20.07
2022-09-17T16:01:29.229Z,20.11
2022-09-17T16:04:08.375Z,20.14
2022-09-17T16:06:37.549Z,20.21
2022-09-17T16:09:42.819Z,20.25
2022-09-17T16:12:14.246Z,20.26
2022-09-17T16:14:53.318Z,20.26
2022-09-17T16:17:46.351Z,20.28
2022-09-17T16:20:21.966Z,20.28
2022-09-17T16:22:50.415Z,20.25
2022-09-17T16:25:19.904Z,20.26
2022-09-17T16:27:57.273Z,20.24
2022-09-17T16:30:24.920Z,20.21
2022-09-17T16:32:52.908Z,20.16
2022-09-17T16:35:23.732Z,20.11
2022-09-17T16:37:53.159Z,20.01
2022-09-17T16:40:22.861Z,19.91
2022-09-17T16:42:50.208Z,19.81
2022-09-17T16:45:17.255Z,19.70
2022-09-17T16:47:44.857Z,19.58
2022-09-17T16:50:16.062Z,19.47
2022-09-17T16:52:43.855Z,19.37
2022-09-17T16:55:13.920Z,19.26
2022-09-17T16:57:41.126Z,19.17
2022-09-17T17:00:12.951Z,19.06
2022-09-17T17:02:39.807Z,18.97
2022-09-17T17:05:07.194Z,18.91
2022-09-17T17:07:35.631Z,18.83
2022-09-17T17:10:05.049Z,18.76
2022-09-17T17:12:31.879Z,18.68
2022-09-17T17:14:58.735Z,18.64
2022-09-17T17:17:25.941Z,18.57
2022-09-17T17:19:53.388Z,18.49
2022-09-17T17:22:20.519Z,18.42
2022-09-17T17:24:47.627Z,18.33
2022-09-17T17:27:14.606Z,18.26
2022-09-17T17:29:41.790Z,18.18
2022-09-17T17:32:08.812Z,18.11
2022-09-17T17:34:35.576Z,18.01
2022-09-17T17:37:02.379Z,17.95
2022-09-17T17:39:29.247Z,17.87
2022-09-17T17:41:56.264Z,17.75
2022-09-17T17:44:23.075Z,17.69
2022-09-17T17:46:49.893Z,17.60
2022-09-17T17:49:17.042Z,17.52
2022-09-17T17:51:45.198Z,17.47
2022-09-17T17:54:11.983Z,17.42
2022-09-17T17:56:38.671Z,17.35
2022-09-17T17:59:05.731Z,17.28
2022-09-17T18:01:35.129Z,17.21
2022-09-17T18:04:07.119Z,17.16
2022-09-17T18:06:34.533Z,17.07
2022-09-17T18:09:02.458Z,17.00
2022-09-17T18:11:29.692Z,16.98
2022-09-17T18:13:58.352Z,16.91
2022-09-17T18:16:25.200Z,16.86
2022-09-17T18:18:52.198Z,16.82
2022-09-17T18:21:22.774Z,16.78
2022-09-17T18:23:50.662Z,16.73
2022-09-17T18:26:22.008Z,16.70
2022-09-17T18:28:49.579Z,16.65
2022-09-17T18:31:26.813Z,16.63
2022-09-17T18:34:07.570Z,16.61
2022-09-17T18:36:36.752Z,16.61
2022-09-17T18:41:59.870Z,16.59
2022-09-17T18:44:27.770Z,16.59
2022-09-17T18:46:54.656Z,16.61
2022-09-17T18:49:21.891Z,16.63
2022-09-17T18:51:48.690Z,16.64
2022-09-17T18:54:18.054Z,16.65
2022-09-17T18:56:45.044Z,16.68
2022-09-17T18:59:11.813Z,16.68
2022-09-17T19:01:39.012Z,16.70
2022-09-17T19:04:07.757Z,16.70
2022-09-17T19:06:35.522Z,16.69
2022-09-17T19:09:05.237Z,16.69
2022-09-17T19:11:32.233Z,16.68
2022-09-17T19:13:59.333Z,16.68
2022-09-17T19:16:26.370Z,16.68
2022-09-17T19:18:53.506Z,16.66
2022-09-17T19:21:21.771Z,16.67
2022-09-17T19:23:51.678Z,16.68
2022-09-17T19:26:24.842Z,16.67
2022-09-17T19:28:57.898Z,16.68
2022-09-17T19:31:25.613Z,16.71
2022-09-17T19:33:53.388Z,16.73
2022-09-17T19:36:26.222Z,16.72
2022-09-17T19:38:53.044Z,16.76
2022-09-17T19:41:25.420Z,16.75
2022-09-17T19:43:56.860Z,16.75
2022-09-17T19:46:26.404Z,16.78
2022-09-17T19:48:57.065Z,16.78
2022-09-17T19:51:28.187Z,16.76
2022-09-17T19:53:55.735Z,16.77
2022-09-17T19:56:25.511Z,16.77
2022-09-17T19:58:52.798Z,16.76
2022-09-17T20:01:20.340Z,16.77
2022-09-17T20:03:50.582Z,16.77
2022-09-17T20:06:20.829Z,16.75
2022-09-17T20:08:53.748Z,16.77
2022-09-17T20:11:24.107Z,16.78
2022-09-17T20:13:56.849Z,16.76
2022-09-17T20:16:23.833Z,16.76
2022-09-17T20:18:51.298Z,16.73
2022-09-17T20:21:22.700Z,16.72
2022-09-17T20:23:50.067Z,16.71
2022-09-17T20:26:18.045Z,16.69
2022-09-17T20:28:46.143Z,16.68
2022-09-17T20:31:28.635Z,16.65
2022-09-17T20:33:59.282Z,16.63
2022-09-17T20:36:31.023Z,16.59
2022-09-17T20:39:21.170Z,16.59
2022-09-17T20:41:45.281Z,16.58
2022-09-17T20:44:12.124Z,16.55
2022-09-17T20:46:39.000Z,16.53
2022-09-17T20:49:06.096Z,16.52
2022-09-17T20:51:33.832Z,16.51
2022-09-17T20:54:01.654Z,16.48
2022-09-17T20:56:33.386Z,16.45
2022-09-17T20:59:09.398Z,16.42
2022-09-17T21:01:37.629Z,16.41
2022-09-17T21:04:07.202Z,16.39
2022-09-17T21:06:42.341Z,16.39
2022-09-17T21:09:12.204Z,16.36
2022-09-17T21:11:39.484Z,16.34
2022-09-17T21:14:06.377Z,16.32
2022-09-17T21:16:33.284Z,16.27
2022-09-17T21:19:06.557Z,16.25
2022-09-17T21:21:34.594Z,16.22
2022-09-17T21:24:06.603Z,16.23
2022-09-17T21:26:37.367Z,16.22
2022-09-17T21:29:04.437Z,16.20
2022-09-17T21:31:34.527Z,16.21
2022-09-17T21:34:05.778Z,16.21
2022-09-17T21:36:36.414Z,16.19
2022-09-17T21:39:10.270Z,16.18
2022-09-17T21:41:42.143Z,16.15
2022-09-17T21:44:10.191Z,16.17
2022-09-17T21:46:38.087Z,16.14
2022-09-17T21:49:06.234Z,16.13
2022-09-17T21:51:40.632Z,16.10
2022-09-17T21:54:16.759Z,16.12
2022-09-17T21:56:45.394Z,16.10
2022-09-17T21:59:16.775Z,16.10
2022-09-17T22:01:48.136Z,16.11
2022-09-17T22:04:20.758Z,16.11
2022-09-17T22:06:49.780Z,16.10
2022-09-17T22:09:23.815Z,16.11
2022-09-17T22:11:52.614Z,16.10
2022-09-17T22:14:23.306Z,16.11
2022-09-17T22:16:54.751Z,16.11
2022-09-17T22:19:24.397Z,16.09
2022-09-17T22:21:54.498Z,16.11
2022-09-17T22:24:23.198Z,16.11
2022-09-17T22:26:57.427Z,16.10
2022-09-17T22:29:27.005Z,16.09
2022-09-17T22:31:54.234Z,16.11
2022-09-17T22:34:23.393Z,16.11
2022-09-17T22:36:50.910Z,16.15
2022-09-17T22:39:21.636Z,16.14
2022-09-17T22:41:49.084Z,16.17
2022-09-17T22:44:18.849Z,16.13
2022-09-17T22:46:49.125Z,16.11
2022-09-17T22:49:16.895Z,16.14
2022-09-17T22:51:46.497Z,16.14
2022-09-17T22:54:16.448Z,16.12
2022-09-17T22:56:43.369Z,16.14
2022-09-17T22:59:11.199Z,16.14
2022-09-17T23:01:40.202Z,16.13
2022-09-17T23:04:07.424Z,16.10
2022-09-17T23:06:38.224Z,16.09
2022-09-17T23:09:06.138Z,16.07
2022-09-17T23:11:38.616Z,16.07
2022-09-17T23:14:11.662Z,16.04
2022-09-17T23:16:43.922Z,16.03
2022-09-17T23:19:11.711Z,16.01
2022-09-17T23:21:39.895Z,15.99
2022-09-17T23:24:07.359Z,15.95
2022-09-17T23:26:34.550Z,15.92
2022-09-17T23:29:05.360Z,15.93
2022-09-17T23:31:34.759Z,15.90
2022-09-17T23:34:02.708Z,15.91
2022-09-17T23:36:32.591Z,15.90
2022-09-17T23:39:02.149Z,15.88
2022-09-17T23:41:40.446Z,15.90
2022-09-17T23:44:14.486Z,15.87
2022-09-17T23:46:42.063Z,15.84
2022-09-17T23:49:12.470Z,15.85
2022-09-17T23:51:39.559Z,15.82
2022-09-17T23:54:07.253Z,15.81
2022-09-17T23:56:35.321Z,15.81
2022-09-17T23:59:02.564Z,15.80
